EGUN

RAF Mildenhall Airport

Mildenhall, United Kingdom
METAR EGUN 162256Z AUTO 30006KT 9999 CLR M02/M02 A3017 RMK AO2 SLP220 T10211021 $
Observed Flight Rules
Dec-16 @ 22:56 UTC (an hour ago) Visual Flight Rules
Wind Visibility Clouds
300° at 6 knots 10,000+ meters
  • Clear skies
Temperatures Readings
Current -2°C / 28°F
Dewpoint -2°C / 28°F
Humidity 100%
Altimeter 30.17" Hg
Pressure 1022 hPa
Elevation 10
METAR EGUN 162256Z AUTO 30006KT 9999 CLR M02/M02 A3017 RMK AO2 SLP220 T10211021 $
Observed Flight Rules
Dec-16 @ 22:56 UTC
(an hour ago)
VFR
Wind Visibility
300° at 6 knots 10,000+ meters
Clouds
  • Clear skies
Temperature Dewpoint
-2°C / 28°F -2°C / 28°F
Humidity Altimeter Pressure
100% 30.17" Hg 1022 hPa